Time;durP1;ratioP1;P1;durP2;ratioP2;P2;SDS_P1;SDS_P2;PMS_P1;PMS_P2;Temp;Humidity;BMP_temperature;BMP_pressure;BME280_temperature;BME280_humidity;BME280_pressure;Samples;Min_cycle;Max_cycle;Signal;HPM_P1;HPM_P2
2022/03/08 00:01:15;;;;;;;2.10;1.50;;;11.30;51.40;;;;;;5086672;28;20183;-74
2022/03/08 00:03:41;;;;;;;1.57;1.40;;;11.30;51.40;;;;;;5078119;28;20167;-74
2022/03/08 00:06:10;;;;;;;2.63;1.60;;;11.30;51.30;;;;;;5077979;28;20171;-74
2022/03/08 00:08:36;;;;;;;2.00;1.50;;;11.30;51.40;;;;;;5077611;28;20188;-75
2022/03/08 00:11:03;;;;;;;2.40;1.53;;;11.30;51.40;;;;;;5077269;28;20168;-75
2022/03/08 00:13:29;;;;;;;2.00;1.50;;;11.30;51.30;;;;;;5087173;28;20191;-74
2022/03/08 00:16:05;;;;;;;1.80;1.43;;;11.30;51.30;;;;;;5077881;28;20184;-75
2022/03/08 00:18:31;;;;;;;2.00;1.50;;;11.30;51.20;;;;;;5077460;28;20183;-74
2022/03/08 00:20:57;;;;;;;2.00;1.57;;;11.30;51.20;;;;;;5077854;28;20172;-74
2022/03/08 00:23:22;;;;;;;2.03;1.40;;;11.30;51.20;;;;;;5077289;28;20168;-74
2022/03/08 00:25:53;;;;;;;1.77;1.57;;;11.30;51.20;;;;;;5077390;28;20166;-75
2022/03/08 00:28:18;;;;;;;1.87;1.60;;;11.30;51.20;;;;;;5077785;28;20211;-75
2022/03/08 00:30:44;;;;;;;2.77;1.53;;;11.30;51.20;;;;;;5077505;28;20230;-74
2022/03/08 00:33:09;;;;;;;2.83;1.70;;;11.20;51.10;;;;;;5077426;28;20168;-75
2022/03/08 00:35:36;;;;;;;2.53;1.43;;;11.20;51.10;;;;;;5077638;28;20221;-74
2022/03/08 00:38:01;;;;;;;1.60;1.40;;;11.20;51.10;;;;;;5077158;28;20276;-75
2022/03/08 00:40:27;;;;;;;2.63;1.40;;;11.20;51.10;;;;;;5077229;28;20230;-74
2022/03/08 00:42:54;;;;;;;2.50;1.50;;;11.20;51.20;;;;;;5078105;28;20185;-75
2022/03/08 00:45:20;;;;;;;2.60;1.43;;;11.20;51.20;;;;;;5077174;28;20165;-75
2022/03/08 00:47:46;;;;;;;1.70;1.60;;;11.20;51.20;;;;;;5077247;28;20211;-74
2022/03/08 00:50:16;;;;;;;3.30;1.60;;;11.20;51.30;;;;;;5077194;28;20175;-75
2022/03/08 00:52:41;;;;;;;1.53;1.33;;;11.20;51.30;;;;;;5077382;28;20232;-75
2022/03/08 00:55:11;;;;;;;1.77;1.50;;;11.20;51.40;;;;;;5076876;28;20271;-75
2022/03/08 00:57:37;;;;;;;1.97;1.60;;;11.20;51.40;;;;;;5077473;28;20190;-74
2022/03/08 01:00:08;;;;;;;1.60;1.40;;;11.20;51.40;;;;;;5077394;28;20179;-73
2022/03/08 01:02:34;;;;;;;1.60;1.50;;;11.20;51.50;;;;;;5077700;28;20173;-75
2022/03/08 01:05:00;;;;;;;1.50;1.30;;;11.20;51.50;;;;;;5077502;28;20179;-75
2022/03/08 01:07:26;;;;;;;1.57;1.40;;;11.20;51.50;;;;;;5076826;28;20766;-75
2022/03/08 01:09:51;;;;;;;1.20;1.10;;;11.20;51.50;;;;;;5076304;28;20172;-74
2022/03/08 01:12:17;;;;;;;1.90;1.50;;;11.20;51.50;;;;;;5080230;28;20168;-75
2022/03/08 01:14:45;;;;;;;1.80;1.50;;;11.10;51.60;;;;;;5079540;28;20169;-75
2022/03/08 01:17:11;;;;;;;2.50;1.47;;;11.10;51.50;;;;;;5080505;28;20171;-75
2022/03/08 01:19:37;;;;;;;1.47;1.30;;;11.10;51.50;;;;;;5080632;28;20175;-74
2022/03/08 01:22:03;;;;;;;1.50;1.20;;;11.10;51.50;;;;;;5080600;28;20221;-75
2022/03/08 01:24:30;;;;;;;1.63;1.27;;;11.10;51.60;;;;;;5080715;28;20354;-75
2022/03/08 01:26:55;;;;;;;2.57;1.33;;;11.10;51.50;;;;;;5081370;28;20197;-75
2022/03/08 01:29:21;;;;;;;1.50;1.40;;;11.10;51.60;;;;;;5080459;28;20233;-75
2022/03/08 01:31:47;;;;;;;1.93;1.30;;;11.10;51.60;;;;;;5080803;28;20172;-75
2022/03/08 01:34:12;;;;;;;1.87;1.23;;;11.10;51.60;;;;;;5080548;28;20169;-75
2022/03/08 01:36:38;;;;;;;2.23;1.43;;;11.10;51.60;;;;;;5079709;28;20184;-76
2022/03/08 01:39:05;;;;;;;1.60;1.27;;;11.10;51.60;;;;;;5080461;28;20181;-75
2022/03/08 01:41:31;;;;;;;1.57;1.23;;;11.10;51.60;;;;;;5080287;28;20176;-75
2022/03/08 01:43:56;;;;;;;1.40;1.30;;;11.10;51.70;;;;;;5081688;28;20194;-75
2022/03/08 01:46:22;;;;;;;1.67;1.30;;;11.10;51.60;;;;;;5081168;28;20618;-74
2022/03/08 01:48:48;;;;;;;1.47;1.30;;;11.10;51.60;;;;;;5080043;28;20225;-75
2022/03/08 01:51:48;;;;;;;2.70;1.30;;;11.10;51.60;;;;;;5080635;28;20233;-75
2022/03/08 01:54:13;;;;;;;1.37;1.20;;;11.00;51.60;;;;;;5080641;28;20167;-75
2022/03/08 01:56:39;;;;;;;1.40;1.30;;;11.10;51.70;;;;;;5080398;28;20195;-75
2022/03/08 01:59:05;;;;;;;1.50;1.40;;;11.00;51.70;;;;;;5079648;28;20173;-75
2022/03/08 02:01:41;;;;;;;1.97;1.37;;;11.00;51.70;;;;;;5079495;28;20187;-75
2022/03/08 02:04:07;;;;;;;1.30;1.20;;;11.00;51.70;;;;;;5079849;28;20188;-75
2022/03/08 02:06:32;;;;;;;1.73;1.20;;;11.00;51.80;;;;;;5079899;28;20193;-75
2022/03/08 02:08:58;;;;;;;1.43;1.20;;;11.00;51.80;;;;;;5080512;28;20177;-74
2022/03/08 02:11:24;;;;;;;1.40;1.23;;;11.00;51.80;;;;;;5080097;28;20179;-75
2022/03/08 02:13:50;;;;;;;1.20;1.10;;;11.00;51.80;;;;;;5080071;28;20191;-74
2022/03/08 02:16:18;;;;;;;1.30;1.20;;;11.00;51.90;;;;;;5079941;28;20171;-74
2022/03/08 02:18:44;;;;;;;1.40;1.27;;;11.00;51.90;;;;;;5079753;28;20173;-75
2022/03/08 02:21:12;;;;;;;1.90;1.17;;;11.00;51.90;;;;;;5079536;28;20272;-75
2022/03/08 02:23:38;;;;;;;3.13;1.30;;;11.00;51.90;;;;;;5078078;28;20180;-75
2022/03/08 02:26:04;;;;;;;1.57;1.47;;;11.00;51.90;;;;;;5078890;28;20168;-75
2022/03/08 02:28:30;;;;;;;1.43;1.33;;;11.00;51.90;;;;;;5079249;28;20171;-75
2022/03/08 02:31:04;;;;;;;1.20;1.10;;;11.00;51.90;;;;;;5079377;28;20164;-74
2022/03/08 02:33:29;;;;;;;1.40;1.13;;;11.00;51.90;;;;;;5079682;28;20171;-75
2022/03/08 02:35:55;;;;;;;1.40;1.30;;;11.00;51.90;;;;;;5079114;28;20176;-74
2022/03/08 02:38:20;;;;;;;1.47;1.37;;;11.00;52.20;;;;;;5079503;28;20187;-75
2022/03/08 02:40:46;;;;;;;1.23;1.13;;;11.00;51.80;;;;;;5079558;28;20197;-75
2022/03/08 02:43:12;;;;;;;1.60;1.30;;;11.00;51.90;;;;;;5087870;28;20184;-73
2022/03/08 02:45:39;;;;;;;1.30;1.20;;;11.00;51.90;;;;;;5079560;28;20175;-75
2022/03/08 02:48:05;;;;;;;1.50;1.20;;;10.90;51.80;;;;;;5079724;28;20226;-75
2022/03/08 02:50:40;;;;;;;1.43;1.30;;;11.00;51.90;;;;;;5079132;28;20179;-74
2022/03/08 02:53:06;;;;;;;1.50;1.30;;;10.90;51.90;;;;;;5079487;28;20182;-74
2022/03/08 02:55:35;;;;;;;1.30;1.20;;;10.90;51.80;;;;;;5079121;28;20187;-75
2022/03/08 02:58:01;;;;;;;1.30;1.20;;;10.90;51.90;;;;;;5078928;28;20183;-75
2022/03/08 03:00:30;;;;;;;1.43;1.20;;;10.90;51.90;;;;;;5079098;28;20193;-75
2022/03/08 03:02:56;;;;;;;1.43;1.33;;;10.90;51.90;;;;;;5079830;28;20214;-74
2022/03/08 03:05:22;;;;;;;2.00;1.40;;;10.90;51.90;;;;;;5078901;28;20281;-75
2022/03/08 03:07:48;;;;;;;1.53;1.10;;;10.90;51.90;;;;;;5078145;28;20574;-74
2022/03/08 03:10:17;;;;;;;1.30;1.10;;;10.90;51.90;;;;;;5078631;28;20248;-73
2022/03/08 03:12:43;;;;;;;2.07;1.20;;;10.90;51.90;;;;;;5079045;28;20710;-74
2022/03/08 03:15:12;;;;;;;2.93;1.70;;;10.90;51.80;;;;;;5078669;28;20182;-74
2022/03/08 03:17:38;;;;;;;1.23;1.13;;;10.90;51.80;;;;;;5078617;28;20184;-75
2022/03/08 03:20:21;;;;;;;1.60;1.30;;;10.90;51.80;;;;;;5078474;28;20204;-74
2022/03/08 03:22:47;;;;;;;1.33;1.20;;;10.90;51.80;;;;;;5078742;28;20577;-75
2022/03/08 03:25:15;;;;;;;3.53;1.43;;;10.90;51.80;;;;;;5078717;28;20215;-75
2022/03/08 03:27:41;;;;;;;2.40;1.33;;;10.80;51.80;;;;;;5078260;28;20205;-75
2022/03/08 03:30:13;;;;;;;1.73;1.20;;;10.80;51.70;;;;;;5077898;28;20184;-75
2022/03/08 03:32:39;;;;;;;2.23;1.13;;;10.80;51.80;;;;;;5078001;28;20177;-75
2022/03/08 03:35:07;;;;;;;2.10;1.60;;;10.80;51.80;;;;;;5077732;28;20236;-75
2022/03/08 03:37:33;;;;;;;2.10;1.30;;;10.80;51.80;;;;;;5078445;28;20180;-75
2022/03/08 03:40:00;;;;;;;1.43;1.33;;;10.80;51.80;;;;;;5078219;28;20204;-75
2022/03/08 03:42:26;;;;;;;1.23;1.07;;;10.80;51.70;;;;;;5078337;28;20266;-74
2022/03/08 03:44:51;;;;;;;1.30;1.20;;;10.80;51.70;;;;;;5078309;28;20215;-74
2022/03/08 03:47:17;;;;;;;1.40;1.30;;;10.80;51.60;;;;;;5078014;28;20779;-74
2022/03/08 03:49:52;;;;;;;1.40;1.30;;;10.70;51.60;;;;;;5078256;28;20178;-74
2022/03/08 03:52:18;;;;;;;2.23;1.40;;;10.70;51.50;;;;;;5078079;28;20542;-75
2022/03/08 03:54:44;;;;;;;1.97;1.40;;;10.70;51.50;;;;;;5077749;28;20223;-75
2022/03/08 03:57:11;;;;;;;1.63;1.37;;;10.70;51.40;;;;;;5077778;28;20238;-75
2022/03/08 03:59:46;;;;;;;1.90;1.70;;;10.70;51.40;;;;;;5078282;28;20187;-74
2022/03/08 04:02:11;;;;;;;1.30;1.20;;;10.70;51.30;;;;;;5077708;28;20278;-74
2022/03/08 04:04:37;;;;;;;1.73;1.50;;;10.70;51.30;;;;;;5078266;28;20230;-75
2022/03/08 04:07:03;;;;;;;1.40;1.30;;;10.70;51.20;;;;;;5086819;28;20220;-75
2022/03/08 04:09:29;;;;;;;1.60;1.50;;;10.70;51.30;;;;;;5078547;28;20179;-75
2022/03/08 04:11:55;;;;;;;2.00;1.57;;;10.70;51.30;;;;;;5077630;28;20168;-74
2022/03/08 04:14:20;;;;;;;2.17;1.97;;;10.70;51.70;;;;;;5076623;28;20259;-74
2022/03/08 04:16:46;;;;;;;2.37;2.00;;;10.60;51.10;;;;;;5076958;28;20332;-74
2022/03/08 04:19:12;;;;;;;1.73;1.50;;;10.60;51.10;;;;;;5076895;28;20230;-75
2022/03/08 04:21:38;;;;;;;2.53;1.83;;;10.60;51.00;;;;;;5077691;28;20171;-75
2022/03/08 04:24:04;;;;;;;2.93;2.00;;;10.60;51.00;;;;;;5077439;28;20218;-75
2022/03/08 04:26:46;;;;;;;1.83;1.70;;;10.60;51.00;;;;;;5093144;28;20207;-75
2022/03/08 04:29:11;;;;;;;2.10;1.60;;;10.60;50.90;;;;;;5098152;28;20167;-74
2022/03/08 04:31:37;;;;;;;2.47;1.70;;;10.60;50.90;;;;;;5097846;28;20176;-74
2022/03/08 04:34:03;;;;;;;2.70;2.10;;;10.60;50.90;;;;;;5097315;28;20172;-74
2022/03/08 04:36:36;;;;;;;3.03;2.10;;;10.50;50.90;;;;;;5096429;28;20429;-74
2022/03/08 04:39:03;;;;;;;2.47;1.83;;;10.50;50.80;;;;;;5097621;28;20167;-75
2022/03/08 04:41:28;;;;;;;2.20;1.77;;;10.50;50.90;;;;;;5096581;28;20179;-75
2022/03/08 04:43:54;;;;;;;4.60;2.00;;;10.50;50.90;;;;;;5101796;28;20239;-75
2022/03/08 04:46:21;;;;;;;2.40;1.93;;;10.50;50.80;;;;;;5100074;28;20175;-75
2022/03/08 04:48:47;;;;;;;3.10;1.90;;;10.50;50.80;;;;;;5097462;28;20166;-75
2022/03/08 04:51:12;;;;;;;2.37;1.70;;;10.50;50.80;;;;;;5097355;28;20178;-75
2022/03/08 04:53:39;;;;;;;2.70;2.03;;;10.50;50.90;;;;;;5097518;28;20175;-75
2022/03/08 04:56:05;;;;;;;2.77;2.10;;;10.50;50.90;;;;;;5097939;28;20224;-74
2022/03/08 04:58:31;;;;;;;2.07;1.87;;;10.50;50.80;;;;;;5096613;28;20285;-75
2022/03/08 05:00:56;;;;;;;3.23;2.30;;;10.50;50.80;;;;;;5096891;28;20333;-75
2022/03/08 05:03:22;;;;;;;3.50;2.50;;;10.40;50.80;;;;;;5096336;28;20176;-75
2022/03/08 05:05:49;;;;;;;2.20;2.00;;;10.40;50.70;;;;;;5096528;28;20211;-74
2022/03/08 05:08:15;;;;;;;2.90;2.10;;;10.40;50.70;;;;;;5097079;28;20225;-76
2022/03/08 05:10:41;;;;;;;3.63;2.23;;;10.40;50.70;;;;;;5097481;28;20172;-75
2022/03/08 05:13:06;;;;;;;4.27;2.10;;;10.40;50.70;;;;;;5097319;28;20167;-74
2022/03/08 05:15:39;;;;;;;3.33;2.40;;;10.40;50.60;;;;;;5096599;28;20174;-75
2022/03/08 05:18:04;;;;;;;5.97;2.80;;;10.40;50.60;;;;;;5096914;28;20175;-75
2022/03/08 05:20:30;;;;;;;2.73;2.10;;;10.40;50.60;;;;;;5097124;28;20445;-75
2022/03/08 05:22:56;;;;;;;3.33;2.20;;;10.40;50.60;;;;;;5096146;28;20179;-75
2022/03/08 05:25:28;;;;;;;3.00;2.40;;;10.30;50.60;;;;;;5097188;28;20237;-75
2022/03/08 05:27:55;;;;;;;3.53;2.40;;;10.30;50.60;;;;;;5096081;28;20207;-75
2022/03/08 05:30:20;;;;;;;2.97;2.10;;;10.30;50.70;;;;;;5096264;28;20168;-75
2022/03/08 05:32:46;;;;;;;3.00;2.17;;;10.30;50.70;;;;;;5096289;28;20175;-75
2022/03/08 05:35:12;;;;;;;3.60;2.20;;;10.30;50.70;;;;;;5096156;28;20172;-76
2022/03/08 05:37:38;;;;;;;3.43;2.27;;;10.30;50.70;;;;;;5095850;28;20434;-75
2022/03/08 05:40:06;;;;;;;2.73;2.07;;;10.30;50.80;;;;;;5095952;28;20202;-75
2022/03/08 05:42:31;;;;;;;2.47;2.07;;;10.30;50.80;;;;;;5095748;28;20179;-75
2022/03/08 05:44:57;;;;;;;2.83;2.33;;;10.30;50.80;;;;;;5096341;28;20251;-75
2022/03/08 05:47:23;;;;;;;2.20;2.00;;;10.30;50.90;;;;;;5096742;28;20243;-76
2022/03/08 05:49:49;;;;;;;2.50;2.00;;;10.30;51.00;;;;;;5096129;28;20179;-75
2022/03/08 05:52:17;;;;;;;3.10;2.20;;;10.30;50.90;;;;;;5095735;28;20171;-75
2022/03/08 05:54:42;;;;;;;5.03;2.20;;;10.30;50.90;;;;;;5096066;28;20197;-75
2022/03/08 05:57:08;;;;;;;2.80;2.30;;;10.30;50.90;;;;;;5095229;28;20446;-75
2022/03/08 05:59:34;;;;;;;3.23;2.30;;;10.30;50.90;;;;;;5099232;28;20256;-75
2022/03/08 06:01:59;;;;;;;2.43;2.20;;;10.30;51.00;;;;;;5099581;28;20172;-75
2022/03/08 06:04:25;;;;;;;3.27;2.00;;;10.20;50.90;;;;;;5099017;28;20370;-74
2022/03/08 06:06:52;;;;;;;4.03;2.00;;;10.30;50.90;;;;;;5098963;28;20601;-75
2022/03/08 06:09:26;;;;;;;2.87;2.07;;;10.30;50.90;;;;;;5098857;28;20247;-75
2022/03/08 06:11:52;;;;;;;2.83;2.10;;;10.30;50.90;;;;;;5098842;28;20263;-75
2022/03/08 06:14:18;;;;;;;4.17;2.30;;;10.30;51.00;;;;;;5098521;28;20290;-75
2022/03/08 06:16:43;;;;;;;3.23;2.20;;;10.20;51.00;;;;;;5098288;28;20171;-75
2022/03/08 06:19:09;;;;;;;2.83;2.10;;;10.30;51.00;;;;;;5097987;28;20181;-75
2022/03/08 06:21:35;;;;;;;2.37;2.13;;;10.30;51.00;;;;;;5094881;28;20277;-75
2022/03/08 06:24:00;;;;;;;2.57;1.97;;;10.30;51.10;;;;;;5097282;28;20247;-75
2022/03/08 06:26:32;;;;;;;2.40;2.00;;;10.30;51.10;;;;;;5097043;28;20201;-75
2022/03/08 06:28:58;;;;;;;3.27;2.33;;;10.30;51.00;;;;;;5096753;28;20715;-75
2022/03/08 06:31:24;;;;;;;2.30;1.80;;;10.30;51.20;;;;;;5096151;28;20548;-75
2022/03/08 06:33:49;;;;;;;2.60;2.00;;;10.30;51.20;;;;;;5096383;28;20289;-74
2022/03/08 06:36:22;;;;;;;3.70;2.23;;;10.30;51.30;;;;;;5097452;28;20176;-75
2022/03/08 06:38:47;;;;;;;3.13;2.27;;;10.30;51.30;;;;;;5097287;28;20282;-75
2022/03/08 06:41:13;;;;;;;2.40;1.90;;;10.30;51.40;;;;;;5096374;28;20748;-75
2022/03/08 06:43:39;;;;;;;3.00;1.87;;;10.40;51.40;;;;;;5097382;28;20175;-75
2022/03/08 06:46:05;;;;;;;3.00;2.00;;;10.40;51.40;;;;;;5096963;28;20259;-75
2022/03/08 06:48:31;;;;;;;2.40;1.80;;;10.50;51.40;;;;;;5094865;28;20209;-75
2022/03/08 06:50:57;;;;;;;2.70;1.90;;;10.60;51.20;;;;;;5096073;28;20190;-75
2022/03/08 06:53:28;;;;;;;3.23;2.07;;;10.70;51.00;;;;;;5096947;28;20273;-75
2022/03/08 06:55:54;;;;;;;3.23;1.80;;;10.80;50.80;;;;;;5096361;28;20177;-75
2022/03/08 06:58:20;;;;;;;2.70;1.87;;;10.90;50.70;;;;;;5095468;28;20284;-75
2022/03/08 07:00:46;;;;;;;2.50;2.20;;;11.00;50.60;;;;;;5096141;28;20275;-75
2022/03/08 07:03:12;;;;;;;2.57;1.97;;;11.00;50.40;;;;;;5095444;28;20480;-74
2022/03/08 07:05:38;;;;;;;3.43;2.13;;;11.10;50.40;;;;;;5097470;28;20185;-75
2022/03/08 07:08:05;;;;;;;3.30;1.97;;;11.20;50.30;;;;;;5095478;28;20216;-75
2022/03/08 07:10:30;;;;;;;4.27;2.07;;;11.20;50.10;;;;;;5090907;28;20243;-75
2022/03/08 07:12:57;;;;;;;4.13;2.07;;;11.30;50.10;;;;;;5094390;28;20223;-76
2022/03/08 07:15:23;;;;;;;2.63;1.97;;;11.40;49.90;;;;;;5096827;28;20321;-76
2022/03/08 07:17:48;;;;;;;2.67;2.13;;;11.50;49.70;;;;;;5097816;28;20460;-74
2022/03/08 07:20:16;;;;;;;4.23;2.23;;;11.60;49.50;;;;;;5096597;28;20185;-75
2022/03/08 07:22:42;;;;;;;3.10;2.20;;;11.70;49.40;;;;;;5098161;28;20280;-75
2022/03/08 07:25:09;;;;;;;4.00;2.40;;;11.80;49.20;;;;;;5096216;28;20186;-75
2022/03/08 07:27:35;;;;;;;3.13;2.23;;;11.90;49.00;;;;;;5096005;28;20206;-75
2022/03/08 07:30:03;;;;;;;3.60;2.50;;;12.00;48.80;;;;;;5095502;28;20236;-75
2022/03/08 07:32:29;;;;;;;3.33;2.33;;;12.10;48.70;;;;;;5097527;28;20171;-75
2022/03/08 07:34:54;;;;;;;2.80;2.30;;;12.30;48.60;;;;;;5096249;28;20302;-75
2022/03/08 07:37:22;;;;;;;3.43;2.43;;;12.40;48.50;;;;;;5096084;28;20562;-74
2022/03/08 07:39:48;;;;;;;3.87;2.70;;;12.50;48.10;;;;;;5095804;28;20196;-75
2022/03/08 07:42:13;;;;;;;3.40;2.73;;;12.60;47.90;;;;;;5096598;28;20187;-75
2022/03/08 07:44:40;;;;;;;6.57;2.87;;;12.70;47.80;;;;;;5095896;28;20177;-75
2022/03/08 07:47:05;;;;;;;3.87;3.20;;;12.80;47.90;;;;;;5095786;28;20200;-75
2022/03/08 07:49:31;;;;;;;3.30;3.00;;;12.90;47.80;;;;;;5095499;28;20169;-75
2022/03/08 07:51:57;;;;;;;4.93;3.07;;;13.00;47.60;;;;;;5095843;28;20181;-75
2022/03/08 07:54:23;;;;;;;3.77;2.97;;;13.10;47.60;;;;;;5095047;28;20167;-75
2022/03/08 07:56:49;;;;;;;4.17;2.90;;;13.20;47.50;;;;;;5094372;28;20190;-75
2022/03/08 07:59:14;;;;;;;5.40;2.83;;;13.30;47.30;;;;;;5094441;28;20610;-75
2022/03/08 08:01:40;;;;;;;4.20;3.20;;;13.40;47.30;;;;;;5092023;28;20179;-75
2022/03/08 08:04:06;;;;;;;4.43;2.97;;;13.50;47.20;;;;;;5094860;28;20175;-75
2022/03/08 08:06:34;;;;;;;3.97;3.10;;;13.60;47.10;;;;;;5095599;28;20499;-75
2022/03/08 08:09:00;;;;;;;7.13;3.37;;;13.70;47.00;;;;;;5096191;28;20521;-75
2022/03/08 08:11:25;;;;;;;3.77;3.00;;;13.70;46.90;;;;;;5095794;28;20185;-75
2022/03/08 08:13:52;;;;;;;4.67;3.20;;;13.80;46.80;;;;;;5095235;28;20672;-76
2022/03/08 08:16:19;;;;;;;5.63;3.00;;;13.90;46.80;;;;;;5095885;28;20163;-76
2022/03/08 08:18:44;;;;;;;4.23;3.10;;;14.00;46.80;;;;;;5095064;28;20194;-75
2022/03/08 08:21:10;;;;;;;4.10;2.80;;;14.00;46.60;;;;;;5092425;28;20218;-74
2022/03/08 08:23:36;;;;;;;5.37;3.50;;;14.10;46.60;;;;;;5094436;28;20167;-75
2022/03/08 08:26:02;;;;;;;5.13;3.20;;;14.20;46.60;;;;;;5093772;28;20167;-74
2022/03/08 08:28:27;;;;;;;4.00;2.83;;;14.20;46.50;;;;;;5095252;28;20221;-75
2022/03/08 08:30:53;;;;;;;5.47;3.13;;;14.30;46.50;;;;;;5094942;28;20198;-75
2022/03/08 08:33:19;;;;;;;3.97;2.90;;;14.40;46.50;;;;;;5095549;28;20167;-75
2022/03/08 08:35:45;;;;;;;4.80;3.50;;;14.40;46.50;;;;;;5095020;28;20673;-75
2022/03/08 08:38:11;;;;;;;4.93;3.37;;;14.50;46.50;;;;;;5094817;28;20477;-74
2022/03/08 08:40:37;;;;;;;8.03;3.00;;;14.50;46.90;;;;;;5094769;28;20597;-75
2022/03/08 08:43:05;;;;;;;4.70;3.07;;;14.60;46.40;;;;;;5094308;28;20587;-75
2022/03/08 08:45:31;;;;;;;4.50;3.10;;;14.70;46.30;;;;;;5094436;28;20257;-75
2022/03/08 08:47:57;;;;;;;6.57;3.13;;;14.70;46.20;;;;;;5095167;28;20276;-75
2022/03/08 08:50:24;;;;;;;6.70;3.47;;;14.80;46.30;;;;;;5099652;28;20194;-75
2022/03/08 08:52:49;;;;;;;4.07;2.97;;;14.90;46.20;;;;;;5115698;28;20176;-75
2022/03/08 08:55:15;;;;;;;4.80;2.90;;;15.00;46.10;;;;;;5115532;28;20171;-75
2022/03/08 08:57:41;;;;;;;5.33;3.10;;;15.10;46.10;;;;;;5114777;28;20185;-75
2022/03/08 09:00:08;;;;;;;6.40;3.07;;;15.10;46.00;;;;;;5114967;28;20177;-75
2022/03/08 09:02:35;;;;;;;4.70;2.83;;;15.20;45.80;;;;;;5113717;28;20173;-75
2022/03/08 09:05:01;;;;;;;4.60;3.37;;;15.20;45.80;;;;;;5114140;28;20299;-75
2022/03/08 09:07:27;;;;;;;4.10;3.13;;;15.30;45.70;;;;;;5115361;28;20206;-75
2022/03/08 09:09:52;;;;;;;4.50;3.10;;;15.40;45.60;;;;;;5115491;28;20174;-75
2022/03/08 09:12:19;;;;;;;6.37;2.90;;;15.50;45.60;;;;;;5115409;28;20166;-75
2022/03/08 09:14:44;;;;;;;4.60;2.87;;;15.50;45.40;;;;;;5114153;28;20171;-75
2022/03/08 09:17:10;;;;;;;4.57;2.80;;;15.60;45.30;;;;;;5114237;28;20180;-75
2022/03/08 09:19:36;;;;;;;4.07;2.77;;;15.60;45.20;;;;;;5114502;28;20629;-74
2022/03/08 09:22:02;;;;;;;4.23;2.73;;;15.70;45.10;;;;;;5115446;28;20170;-75
2022/03/08 09:24:28;;;;;;;5.70;2.80;;;15.80;44.90;;;;;;5115728;28;20240;-75
2022/03/08 09:26:53;;;;;;;4.43;2.77;;;15.80;44.90;;;;;;5113668;28;20225;-75
2022/03/08 09:29:19;;;;;;;3.90;2.83;;;15.80;44.70;;;;;;5114545;28;20731;-75
2022/03/08 09:31:45;;;;;;;4.27;2.60;;;15.80;44.70;;;;;;5113135;28;20170;-75
2022/03/08 09:34:12;;;;;;;3.90;2.43;;;15.50;44.60;;;;;;5117848;28;20182;-76
2022/03/08 09:36:38;;;;;;;3.77;2.60;;;15.20;44.80;;;;;;5117485;28;20165;-75
2022/03/08 09:39:05;;;;;;;3.10;2.60;;;14.90;45.20;;;;;;5118802;28;20165;-75
2022/03/08 09:41:30;;;;;;;5.60;2.70;;;14.60;45.60;;;;;;5118444;28;20253;-75
2022/03/08 09:43:57;;;;;;;3.07;2.57;;;14.40;46.00;;;;;;5118555;28;20544;-76
2022/03/08 09:46:33;;;;;;;3.93;2.33;;;14.10;46.20;;;;;;5117417;28;20193;-75
2022/03/08 09:48:59;;;;;;;4.33;2.23;;;14.00;46.60;;;;;;5118107;28;20176;-75
2022/03/08 09:51:25;;;;;;;3.67;2.73;;;13.90;47.20;;;;;;5117479;28;20170;-75
2022/03/08 09:53:54;;;;;;;4.10;2.40;;;13.80;46.90;;;;;;5118572;28;20173;-75
2022/03/08 09:56:20;;;;;;;4.13;2.47;;;13.80;47.10;;;;;;5117174;28;20215;-75
2022/03/08 09:58:46;;;;;;;3.80;2.40;;;13.80;47.20;;;;;;5117264;28;20170;-75
2022/03/08 10:01:12;;;;;;;3.47;2.40;;;13.80;47.30;;;;;;5116496;28;20567;-74
2022/03/08 10:03:40;;;;;;;3.10;2.40;;;13.70;47.30;;;;;;5117226;28;20166;-75
2022/03/08 10:06:11;;;;;;;4.30;2.20;;;13.70;47.40;;;;;;5117785;28;20174;-75
2022/03/08 10:08:37;;;;;;;3.63;2.40;;;13.70;47.50;;;;;;5117164;28;20659;-75
2022/03/08 10:11:14;;;;;;;2.20;1.90;;;13.70;47.50;;;;;;5118264;28;20194;-75
2022/03/08 10:13:45;;;;;;;2.93;2.07;;;13.70;47.60;;;;;;5117080;28;20564;-75
2022/03/08 10:16:22;;;;;;;2.20;1.97;;;13.70;47.60;;;;;;5116793;28;20178;-75
2022/03/08 10:18:54;;;;;;;3.20;2.30;;;13.70;47.60;;;;;;5118313;28;20727;-75
2022/03/08 10:21:34;;;;;;;3.43;2.13;;;13.70;47.60;;;;;;5117284;28;20590;-74
2022/03/08 10:24:13;;;;;;;2.00;1.80;;;13.70;47.60;;;;;;5117463;28;20258;-75
2022/03/08 10:26:47;;;;;;;3.70;2.00;;;13.70;47.60;;;;;;5114168;28;20177;-75
2022/03/08 10:29:21;;;;;;;5.37;2.10;;;13.80;47.60;;;;;;5097122;28;20170;-75
2022/03/08 10:31:47;;;;;;;3.43;2.20;;;13.80;47.60;;;;;;5102862;28;20283;-75
2022/03/08 10:34:16;;;;;;;3.23;1.90;;;13.80;47.60;;;;;;5095746;28;20831;-75
2022/03/08 10:37:01;;;;;;;3.20;2.00;;;13.80;47.60;;;;;;5096504;28;20445;-76
2022/03/08 10:39:27;;;;;;;4.67;2.20;;;13.80;47.50;;;;;;5096534;28;20186;-75
2022/03/08 10:41:56;;;;;;;3.37;2.10;;;13.70;47.50;;;;;;5096507;28;20182;-75
2022/03/08 10:44:40;;;;;;;3.00;2.30;;;13.80;47.50;;;;;;5096818;28;20618;-75
2022/03/08 10:47:12;;;;;;;1.90;1.70;;;13.80;47.50;;;;;;5096433;28;20205;-75
2022/03/08 10:49:56;;;;;;;2.03;1.70;;;13.80;47.60;;;;;;5097348;28;20175;-75
2022/03/08 10:52:30;;;;;;;2.40;1.93;;;13.80;47.60;;;;;;5096465;28;20170;-75
2022/03/08 10:55:19;;;;;;;2.13;1.80;;;13.80;47.70;;;;;;5096511;28;20172;-75
2022/03/08 10:57:50;;;;;;;3.10;1.90;;;13.80;47.70;;;;;;5095503;28;20176;-75
2022/03/08 11:00:17;;;;;;;2.30;1.70;;;13.80;47.70;;;;;;5095427;28;20188;-75
2022/03/08 11:03:13;;;;;;;2.03;1.70;;;13.80;47.70;;;;;;5096218;28;20240;-75
2022/03/08 11:05:42;;;;;;;2.37;1.60;;;13.80;47.80;;;;;;5095268;28;20195;-74
2022/03/08 11:08:08;;;;;;;1.70;1.43;;;13.80;47.80;;;;;;5097032;28;20749;-75
2022/03/08 11:10:35;;;;;;;1.60;1.40;;;13.80;47.80;;;;;;5095766;28;20181;-75
2022/03/08 11:13:02;;;;;;;2.43;1.70;;;13.90;47.80;;;;;;5096452;28;20175;-75
2022/03/08 11:15:31;;;;;;;2.03;1.70;;;13.80;47.80;;;;;;5096659;28;20253;-75
2022/03/08 11:17:57;;;;;;;2.57;1.80;;;13.90;47.80;;;;;;5095632;28;20174;-75
2022/03/08 11:20:25;;;;;;;2.60;1.70;;;13.80;47.80;;;;;;5096389;28;20170;-75
2022/03/08 11:22:54;;;;;;;1.87;1.67;;;13.90;47.90;;;;;;5096898;28;20162;-75
2022/03/08 11:25:29;;;;;;;2.07;1.80;;;13.90;47.90;;;;;;5097346;28;20153;-75
2022/03/08 11:27:55;;;;;;;2.27;1.80;;;13.90;48.00;;;;;;5091466;28;20200;-75
2022/03/08 11:30:23;;;;;;;2.83;1.70;;;13.90;48.00;;;;;;5095077;28;20174;-75
2022/03/08 11:32:53;;;;;;;2.70;1.60;;;13.90;47.90;;;;;;5096455;28;20190;-75
2022/03/08 11:35:31;;;;;;;2.23;1.60;;;14.00;47.80;;;;;;5095786;28;20267;-75
2022/03/08 11:37:58;;;;;;;2.80;1.87;;;14.00;47.50;;;;;;5096397;28;20174;-75
2022/03/08 11:40:24;;;;;;;3.03;1.73;;;14.00;47.10;;;;;;5094666;28;20217;-75
2022/03/08 11:42:59;;;;;;;2.07;1.70;;;14.10;47.10;;;;;;5096002;28;20188;-75
2022/03/08 11:45:27;;;;;;;3.90;1.73;;;14.00;47.10;;;;;;5095718;28;20179;-75
2022/03/08 11:48:05;;;;;;;2.03;1.70;;;14.00;47.00;;;;;;5095681;28;20206;-75
2022/03/08 11:50:33;;;;;;;3.10;1.90;;;14.00;47.10;;;;;;5094323;28;20263;-75
2022/03/08 11:53:05;;;;;;;3.70;1.40;;;14.00;47.10;;;;;;5095778;28;20223;-75
2022/03/08 11:55:37;;;;;;;2.23;1.50;;;14.00;47.20;;;;;;5094253;28;20165;-75
2022/03/08 11:58:08;;;;;;;2.10;1.77;;;14.00;47.30;;;;;;5094840;28;20177;-75
2022/03/08 12:00:49;;;;;;;1.40;1.30;;;14.00;47.30;;;;;;5094394;28;20277;-75
2022/03/08 12:03:24;;;;;;;2.10;1.60;;;14.00;47.40;;;;;;5094441;28;20278;-75
2022/03/08 12:06:03;;;;;;;3.00;1.83;;;14.00;47.50;;;;;;5094154;28;20188;-75
2022/03/08 12:08:29;;;;;;;2.47;1.63;;;14.00;47.60;;;;;;5093380;28;20204;-75
2022/03/08 12:11:00;;;;;;;3.93;1.60;;;14.00;47.70;;;;;;5094149;28;20180;-75
2022/03/08 12:13:30;;;;;;;2.07;1.53;;;14.00;47.80;;;;;;5094190;28;20148;-75
2022/03/08 12:16:08;;;;;;;2.67;1.77;;;14.10;47.90;;;;;;5093577;28;20477;-75
2022/03/08 12:18:37;;;;;;;7.13;1.60;;;14.10;47.90;;;;;;5094737;28;20156;-75
2022/03/08 12:21:29;;;;;;;2.30;1.60;;;14.10;47.90;;;;;;5093930;28;20273;-75
2022/03/08 12:24:04;;;;;;;3.60;1.73;;;14.10;47.90;;;;;;5089297;28;20228;-76
2022/03/08 12:26:33;;;;;;;2.90;1.70;;;14.10;48.00;;;;;;5094138;28;20212;-75
2022/03/08 12:29:11;;;;;;;4.83;1.83;;;14.10;48.00;;;;;;5093403;28;20176;-75
2022/03/08 12:31:56;;;;;;;4.47;1.77;;;14.10;48.10;;;;;;5092907;28;20549;-76
2022/03/08 12:34:39;;;;;;;2.77;1.93;;;14.10;48.10;;;;;;5093547;28;20296;-75
2022/03/08 12:37:07;;;;;;;4.00;1.87;;;14.10;48.10;;;;;;5094876;28;20182;-75
2022/03/08 12:39:53;;;;;;;4.17;1.67;;;14.10;48.00;;;;;;5093799;28;20188;-75
2022/03/08 12:42:38;;;;;;;3.07;2.17;;;14.10;48.00;;;;;;5094910;28;20169;-75
2022/03/08 12:45:06;;;;;;;3.37;1.80;;;14.10;48.10;;;;;;5093442;28;20184;-75
2022/03/08 12:47:35;;;;;;;2.37;1.90;;;14.10;48.10;;;;;;5093080;28;20467;-75
2022/03/08 12:50:13;;;;;;;2.73;1.97;;;14.10;48.20;;;;;;5094693;28;20558;-77
2022/03/08 12:52:51;;;;;;;4.50;1.93;;;14.10;48.10;;;;;;5092610;28;20570;-76